Time;durP1;ratioP1;P1;durP2;ratioP2;P2;SDS_P1;SDS_P2;PMS_P1;PMS_P2;Temp;Humidity;BMP_temperature;BMP_pressure;BME280_temperature;BME280_humidity;BME280_pressure;Samples;Min_cycle;Max_cycle;Signal;HPM_P1;HPM_P2
2023/11/12 00:12:07;;;;;;;37.90;18.30;;;;;;;8.16;100.00;99099.89;672711;1262;139928;-79
2023/11/12 00:27:44;;;;;;;32.40;16.40;;;;;;;8.05;100.00;99114.40;681254;1259;139897;-79
2023/11/12 00:43:27;;;;;;;37.90;16.80;;;;;;;8.05;100.00;99124.98;672059;1261;139627;-79
2023/11/12 00:59:05;;;;;;;42.00;17.70;;;;;;;7.97;100.00;99134.12;673573;1257;139793;-79
2023/11/12 01:14:42;;;;;;;45.50;17.60;;;;;;;7.80;100.00;99126.73;678808;1259;139686;-79
2023/11/12 01:30:19;;;;;;;40.90;19.30;;;;;;;7.80;100.00;99123.94;677587;1262;140865;-79
2023/11/12 01:45:56;;;;;;;44.30;18.80;;;;;;;7.60;100.00;99125.64;680070;1260;140216;-79
2023/11/12 02:01:33;;;;;;;45.00;16.20;;;;;;;7.48;100.00;99121.98;682133;1260;140058;-78
2023/11/12 02:17:03;;;;;;;47.30;18.80;;;;;;;7.57;100.00;99117.20;677679;1257;139244;-79
2023/11/12 02:32:40;;;;;;;44.00;19.30;;;;;;;7.48;100.00;99112.75;678618;1262;139314;-78
2023/11/12 02:48:17;;;;;;;42.30;18.90;;;;;;;7.58;100.00;99107.52;675120;1261;139443;-79
2023/11/12 03:03:54;;;;;;;46.90;19.20;;;;;;;7.54;100.00;99108.03;670948;1263;139811;-79
2023/11/12 03:19:32;;;;;;;37.80;17.50;;;;;;;7.39;100.00;99119.77;669304;1260;139410;-79
2023/11/12 03:35:09;;;;;;;41.20;18.10;;;;;;;7.33;100.00;99122.23;678030;1263;139474;-79
2023/11/12 03:50:45;;;;;;;36.10;17.80;;;;;;;7.22;100.00;99122.03;680719;1263;139318;-79
2023/11/12 04:06:23;;;;;;;35.50;17.20;;;;;;;7.10;100.00;99121.52;678035;1262;140000;-78
2023/11/12 04:22:01;;;;;;;37.30;18.40;;;;;;;7.26;100.00;99113.99;677448;1262;139590;-79
2023/11/12 04:37:38;;;;;;;43.30;22.50;;;;;;;7.26;100.00;99121.62;679995;1262;139333;-78
2023/11/12 04:53:17;;;;;;;51.90;21.00;;;;;;;7.32;100.00;99138.01;682210;1262;140297;-80
2023/11/12 05:08:54;;;;;;;47.90;16.00;;;;;;;7.10;100.00;99140.64;675390;1264;138878;-79
2023/11/12 05:24:32;;;;;;;53.20;17.10;;;;;;;6.72;100.00;99148.08;673367;1262;139083;-79
2023/11/12 05:40:08;;;;;;;51.30;16.80;;;;;;;6.80;100.00;99158.83;679934;1263;139482;-80
2023/11/12 05:55:46;;;;;;;60.10;17.50;;;;;;;6.61;100.00;99162.07;674468;1262;140069;-80
2023/11/12 06:11:23;;;;;;;65.80;24.00;;;;;;;6.23;100.00;99165.10;678925;1257;140610;-80
2023/11/12 06:27:00;;;;;;;40.70;18.90;;;;;;;5.83;100.00;99177.37;676236;1262;139182;-79
2023/11/12 06:42:37;;;;;;;34.10;16.40;;;;;;;6.00;100.00;99193.98;676510;1261;138817;-80
2023/11/12 06:58:14;;;;;;;102.50;42.30;;;;;;;6.12;100.00;99204.77;680062;1261;139209;-79
2023/11/12 07:13:51;;;;;;;42.10;18.40;;;;;;;5.81;100.00;99211.50;675429;1273;140421;-79
2023/11/12 07:29:28;;;;;;;33.60;14.60;;;;;;;5.70;100.00;99219.74;676712;1262;139404;-79
2023/11/12 07:45:08;;;;;;;34.60;16.40;;;;;;;5.73;100.00;99220.00;673981;1263;139603;-80
2023/11/12 08:00:52;;;;;;;49.00;24.60;;;;;;;5.87;100.00;99223.21;679148;1261;139416;-80
2023/11/12 08:16:29;;;;;;;49.10;20.80;;;;;;;5.72;100.00;99218.52;678977;1263;139155;-80
2023/11/12 08:32:06;;;;;;;38.60;21.50;;;;;;;5.96;100.00;99230.61;676216;1262;141631;-79
2023/11/12 08:47:43;;;;;;;31.10;16.40;;;;;;;6.34;100.00;99246.08;669794;1262;10142038;-79
2023/11/12 09:03:22;;;;;;;43.40;19.50;;;;;;;6.89;100.00;99268.95;679292;1262;140010;-79
2023/11/12 09:19:05;;;;;;;34.80;18.10;;;;;;;7.61;100.00;99270.45;674555;1263;139852;-79
2023/11/12 09:34:49;;;;;;;204.70;66.50;;;;;;;8.14;100.00;99268.67;678793;1263;139323;-79
2023/11/12 09:50:27;;;;;;;47.50;29.00;;;;;;;10.54;99.77;99278.05;678513;1263;140470;-80
2023/11/12 10:06:04;;;;;;;64.10;28.90;;;;;;;13.57;97.09;99271.05;678844;1262;139978;-80
2023/11/12 10:21:41;;;;;;;45.00;26.60;;;;;;;15.38;85.76;99270.73;678479;1263;140275;-79
2023/11/12 10:37:19;;;;;;;21.90;14.60;;;;;;;16.55;80.46;99259.94;675499;1257;139654;-80
2023/11/12 10:52:58;;;;;;;20.80;13.80;;;;;;;16.00;74.23;99269.79;680900;1262;140447;-80
2023/11/12 11:08:36;;;;;;;15.10;11.50;;;;;;;15.62;75.23;99273.63;674521;1263;140152;-81
2023/11/12 11:24:13;;;;;;;13.70;9.10;;;;;;;16.54;74.35;99272.52;674057;1273;139281;-83
2023/11/12 11:39:51;;;;;;;27.30;18.10;;;;;;;15.93;73.73;99268.08;675192;1261;139351;-81
2023/11/12 11:55:34;;;;;;;27.90;15.70;;;;;;;14.65;74.84;99272.83;676056;1263;139908;-81
2023/11/12 12:11:26;;;;;;;29.50;15.50;;;;;;;12.89;78.19;99270.36;674525;1260;139761;-80
2023/11/12 12:27:03;;;;;;;39.60;18.30;;;;;;;11.98;81.66;99261.00;673801;1260;139095;-81
2023/11/12 12:42:43;;;;;;;18.80;11.60;;;;;;;11.57;83.53;99256.65;678435;1260;140007;-82
2023/11/12 12:58:22;;;;;;;18.90;10.90;;;;;;;11.36;84.95;99264.13;675138;1262;139845;-79
2023/11/12 13:14:00;;;;;;;28.50;15.50;;;;;;;11.23;86.04;99271.19;674103;1260;139317;-80
2023/11/12 13:29:38;;;;;;;;;;;;;;;10.94;85.90;99282.48;674522;1273;139383;-80
2023/11/12 13:45:18;;;;;;;36.60;18.50;;;;;;;10.51;87.77;99298.12;672453;1259;125611;-78
2023/11/12 14:00:54;;;;;;;266.80;81.10;;;;;;;10.45;87.95;99320.25;678137;1258;139193;-80
2023/11/12 14:16:31;;;;;;;69.10;24.20;;;;;;;9.94;88.84;99330.91;678802;1263;139530;-80
2023/11/12 14:32:10;;;;;;;92.60;33.10;;;;;;;9.62;90.55;99336.86;674761;1273;138848;-79
2023/11/12 14:47:47;;;;;;;47.50;23.70;;;;;;;9.23;92.05;99340.52;679291;1261;139280;-79
2023/11/12 15:03:28;;;;;;;41.70;20.10;;;;;;;8.86;92.73;99348.55;680483;1260;138862;-80
2023/11/12 15:19:06;;;;;;;82.70;32.80;;;;;;;8.45;93.81;99365.49;678733;1260;142638;-79
2023/11/12 15:34:43;;;;;;;197.50;56.60;;;;;;;8.24;94.45;99376.69;680465;1260;139484;-79
2023/11/12 15:50:30;;;;;;;86.80;33.00;;;;;;;8.16;95.82;99387.84;678432;1259;139128;-79
2023/11/12 16:06:09;;;;;;;203.90;76.20;;;;;;;8.06;97.81;99387.90;679252;1259;139651;-79
2023/11/12 16:21:50;;;;;;;69.50;31.70;;;;;;;8.03;99.66;99391.97;676897;1259;139360;-78
2023/11/12 16:37:33;;;;;;;187.40;68.00;;;;;;;8.05;99.95;99398.94;675843;1262;139347;-79
2023/11/12 16:53:21;;;;;;;85.70;35.60;;;;;;;8.10;100.00;99405.08;671934;1263;139229;-78
2023/11/12 17:08:57;;;;;;;64.60;30.30;;;;;;;8.24;100.00;99421.27;675366;1257;139823;-80
2023/11/12 17:24:36;;;;;;;62.10;29.50;;;;;;;8.38;100.00;99423.86;676693;1262;139825;-79
2023/11/12 17:40:22;;;;;;;48.00;24.70;;;;;;;8.29;100.00;99434.57;679637;1256;140097;-79
2023/11/12 17:55:59;;;;;;;69.20;31.80;;;;;;;8.35;100.00;99449.14;678781;1262;141629;-80
2023/11/12 18:11:36;;;;;;;51.80;24.80;;;;;;;8.39;100.00;99459.15;672399;1264;139554;-79
2023/11/12 18:27:13;;;;;;;51.70;25.40;;;;;;;8.50;100.00;99468.41;679412;1260;139225;-80
2023/11/12 18:42:55;;;;;;;77.30;29.70;;;;;;;8.64;100.00;99472.02;678725;1260;139517;-79
2023/11/12 18:58:32;;;;;;;63.70;27.20;;;;;;;8.64;100.00;99479.27;676242;1260;139852;-80
2023/11/12 19:14:09;;;;;;;160.40;55.10;;;;;;;8.60;100.00;99488.95;675702;1262;139584;-79
2023/11/12 19:29:52;;;;;;;81.30;29.90;;;;;;;8.55;100.00;99500.20;677964;1258;139438;-79
2023/11/12 19:45:42;;;;;;;74.10;29.30;;;;;;;8.58;100.00;99514.71;675522;1262;138802;-79
2023/11/12 20:01:21;;;;;;;70.40;26.80;;;;;;;8.57;100.00;99517.39;677640;1261;139930;-80
2023/11/12 20:16:59;;;;;;;120.90;36.50;;;;;;;8.64;100.00;99515.58;682052;1267;141790;-79
2023/11/12 20:32:30;;;;;;;76.70;29.10;;;;;;;8.59;100.00;99517.41;680718;1260;139563;-80
2023/11/12 20:48:08;;;;;;;38.90;18.40;;;;;;;8.60;100.00;99517.98;674082;1261;10144296;-79
2023/11/12 21:03:45;;;;;;;45.90;18.70;;;;;;;8.57;100.00;99528.26;672913;1261;139780;-79
2023/11/12 21:19:22;;;;;;;38.90;17.90;;;;;;;8.55;100.00;99530.55;678471;1262;139297;-79
2023/11/12 21:35:00;;;;;;;44.40;18.90;;;;;;;8.48;100.00;99532.48;677509;1259;139458;-79
2023/11/12 21:50:37;;;;;;;39.20;18.00;;;;;;;8.46;100.00;99518.95;678480;1262;140544;-80
2023/11/12 22:06:14;;;;;;;39.70;19.20;;;;;;;8.36;100.00;99526.58;679191;1261;140235;-79
2023/11/12 22:21:52;;;;;;;43.90;20.60;;;;;;;8.32;100.00;99514.73;675453;1262;139145;-79
2023/11/12 22:37:30;;;;;;;32.70;17.60;;;;;;;8.23;100.00;99528.46;679898;1262;140123;-79
2023/11/12 22:53:07;;;;;;;37.30;17.50;;;;;;;8.14;100.00;99534.48;676151;1261;139576;-79
2023/11/12 23:08:43;;;;;;;42.00;19.00;;;;;;;8.03;100.00;99536.55;671223;1262;139520;-78
2023/11/12 23:24:20;;;;;;;31.30;16.40;;;;;;;7.96;100.00;99545.64;675658;1259;139271;-79
2023/11/12 23:39:58;;;;;;;30.90;15.20;;;;;;;7.96;100.00;99559.96;677581;1262;139496;-79
2023/11/12 23:55:35;;;;;;;25.70;14.60;;;;;;;8.06;100.00;99564.27;680207;1263;139528;-78
